createdAt,value
2019-05-22T00:14:13.190Z,95454.66
2019-05-22T00:29:25.930Z,95471.16
2019-05-22T00:44:36.758Z,95453.95
2019-05-22T00:59:46.913Z,95441.50
2019-05-22T01:14:55.606Z,95445.12
2019-05-22T01:30:07.814Z,95449.58
2019-05-22T01:45:18.012Z,95440.61
2019-05-22T02:00:26.404Z,95441.30
2019-05-22T02:15:35.388Z,95419.30
2019-05-22T02:30:45.504Z,95406.27
2019-05-22T02:45:53.759Z,95396.55
2019-05-22T03:01:06.961Z,95408.15
2019-05-22T03:16:16.131Z,95410.27
2019-05-22T03:31:25.418Z,95422.95
2019-05-22T03:46:40.771Z,95429.18
2019-05-22T04:01:51.062Z,95418.74
2019-05-22T04:17:02.047Z,95428.48
2019-05-22T04:32:18.028Z,95425.30
2019-05-22T04:47:27.240Z,95432.64
2019-05-22T05:02:36.311Z,95463.73
2019-05-22T05:17:45.016Z,95483.74
2019-05-22T05:32:52.691Z,95487.11
2019-05-22T05:48:05.398Z,95502.47
2019-05-22T06:03:42.533Z,95495.47
2019-05-22T06:18:52.854Z,95503.23
2019-05-22T06:34:00.970Z,95498.30
2019-05-22T06:49:29.390Z,95501.20
2019-05-22T07:04:37.729Z,95530.21
2019-05-22T07:19:46.696Z,95539.91
2019-05-22T07:34:54.597Z,95558.95
2019-05-22T07:50:04.619Z,95571.10
2019-05-22T08:05:14.367Z,95573.81
2019-05-22T08:20:22.884Z,95589.81
2019-05-22T08:35:44.100Z,95600.59
2019-05-22T08:50:59.143Z,95601.73
2019-05-22T09:06:09.105Z,95609.53
2019-05-22T09:21:20.675Z,95617.73
2019-05-22T09:36:33.377Z,95652.98
2019-05-22T09:51:43.470Z,95652.98
2019-05-22T10:06:52.523Z,95665.38
2019-05-22T10:21:59.878Z,95660.36
2019-05-22T10:37:08.762Z,95659.95
2019-05-22T10:52:16.547Z,95671.35
2019-05-22T11:07:26.367Z,95671.91
2019-05-22T11:22:36.497Z,95685.13
2019-05-22T11:37:44.786Z,95673.45
2019-05-22T11:52:52.563Z,95685.14
2019-05-22T12:08:01.366Z,95699.98
2019-05-22T12:23:13.751Z,95702.22
2019-05-22T12:38:27.059Z,95727.77
2019-05-22T12:53:35.271Z,95737.81
2019-05-22T13:08:45.238Z,95742.98
2019-05-22T13:23:55.259Z,95758.86
2019-05-22T13:39:07.825Z,95765.33
2019-05-22T13:54:16.251Z,95775.45
2019-05-22T14:09:25.280Z,95775.53
2019-05-22T14:24:37.744Z,95774.45
2019-05-22T14:39:46.726Z,95788.02
2019-05-22T14:54:56.143Z,95784.88
2019-05-22T15:10:05.211Z,95800.77
2019-05-22T15:25:14.613Z,95800.47
2019-05-22T15:40:24.468Z,95808.70
2019-05-22T15:55:35.656Z,95805.11
2019-05-22T16:10:45.377Z,95805.77
2019-05-22T16:25:56.167Z,95819.03
2019-05-22T16:41:05.405Z,95818.84
2019-05-22T16:56:15.191Z,95834.34
2019-05-22T17:11:26.326Z,95841.80
2019-05-22T17:26:38.896Z,95855.26
2019-05-22T17:41:47.260Z,95867.27
2019-05-22T17:57:06.409Z,95883.09
2019-05-22T18:12:16.173Z,95891.57
2019-05-22T18:27:26.280Z,95895.70
2019-05-22T18:42:38.451Z,95903.72
2019-05-22T18:57:49.040Z,95924.74
2019-05-22T19:13:02.004Z,95940.91
2019-05-22T19:28:10.392Z,95943.14
2019-05-22T19:43:19.121Z,95950.04
2019-05-22T19:58:31.419Z,95961.22
2019-05-22T20:13:45.251Z,95966.82
2019-05-22T20:28:54.951Z,95959.81
2019-05-22T20:44:07.016Z,95958.52
2019-05-22T20:59:15.214Z,95963.21
2019-05-22T21:14:24.715Z,95967.45
2019-05-22T21:29:35.708Z,95970.06
2019-05-22T21:44:48.170Z,95962.27
2019-05-22T21:59:58.220Z,95980.61
2019-05-22T22:15:08.982Z,96001.72
2019-05-22T22:30:24.501Z,95994.71
2019-05-22T22:45:40.445Z,96004.73
2019-05-22T23:00:51.313Z,96002.11
2019-05-22T23:16:00.442Z,96006.05
2019-05-22T23:31:11.377Z,96016.71
2019-05-22T23:46:21.109Z,96033.12
